Weather at Førde Central Hospital Heliport

Public forecast

Using degrees Celsius for public forecast. Weather courtesy of forecast.io.

Closest aviation weather report (METAR) to Førde Central Hospital Heliport

Closest report is Førde Airport, Bringeland, 5.5 nm (10.1 km) SW.

2024/05/19 23:20 (retrieved 20 minutes ago)

ENBL 192320Z AUTO 36004KT 9999 NCD 07/04 Q1017

Closest aviation forecast (TAF) to Førde Central Hospital Heliport

Closest forecast is Bergen Airport, Flesland, 72.5 nm (134.3 km) SSW.

2024/05/19 18:36 (retrieved 5 hours ago)

TAF ENBR 191700Z 1918/2018 34012KT CAVOK BECMG 2009/2012 26005KT